Time;durP1;ratioP1;P1;durP2;ratioP2;P2;SDS_P1;SDS_P2;PMS_P1;PMS_P2;Temp;Humidity;BMP_temperature;BMP_pressure;BME280_temperature;BME280_humidity;BME280_pressure;Samples;Min_cycle;Max_cycle;Signal;HPM_P1;HPM_P2
2023/11/10 00:00:49;;;;;;;5.32;1.42;;;7.90;99.90;;;;;;4889338;28;96010;-72
2023/11/10 00:03:15;;;;;;;8.23;1.73;;;7.90;99.90;;;;;;4891945;28;87535;-71
2023/11/10 00:05:43;;;;;;;3.47;1.40;;;7.90;99.90;;;;;;4887902;28;88603;-71
2023/11/10 00:08:13;;;;;;;15.27;2.70;;;8.00;99.90;;;;;;4894999;28;86985;-72
2023/11/10 00:10:39;;;;;;;5.07;1.40;;;8.00;99.90;;;;;;4888807;28;88334;-72
2023/11/10 00:13:07;;;;;;;8.10;1.52;;;8.00;99.90;;;;;;4890279;28;90346;-72
2023/11/10 00:15:48;;;;;;;9.82;2.00;;;8.10;99.90;;;;;;4889468;28;93682;-72
2023/11/10 00:18:14;;;;;;;3.38;1.60;;;8.10;99.90;;;;;;4887231;28;89873;-72
2023/11/10 00:20:41;;;;;;;5.93;1.48;;;8.10;99.90;;;;;;4885680;28;87884;-72
2023/11/10 00:23:10;;;;;;;7.45;1.63;;;8.10;99.90;;;;;;4891451;28;87488;-72
2023/11/10 00:25:36;;;;;;;3.40;1.00;;;8.10;99.90;;;;;;4890175;28;90365;-73
2023/11/10 00:28:03;;;;;;;5.78;1.58;;;8.10;99.90;;;;;;4891077;28;91582;-72
2023/11/10 00:30:31;;;;;;;3.85;1.67;;;8.20;99.90;;;;;;4888612;28;87517;-72
2023/11/10 00:32:56;;;;;;;12.52;1.65;;;8.20;99.90;;;;;;4890611;28;89031;-72
2023/11/10 00:35:22;;;;;;;5.25;1.17;;;8.10;99.90;;;;;;4888815;28;92014;-71
2023/11/10 00:37:50;;;;;;;3.95;1.33;;;8.20;99.90;;;;;;4888097;28;91230;-71
2023/11/10 00:40:15;;;;;;;8.23;1.42;;;8.20;99.90;;;;;;4888094;28;89286;-72
2023/11/10 00:42:46;;;;;;;4.57;1.48;;;8.20;99.90;;;;;;4890264;28;90777;-71
2023/11/10 00:45:12;;;;;;;2.97;0.75;;;8.30;99.90;;;;;;4890690;28;91620;-72
2023/11/10 00:47:37;;;;;;;8.20;1.85;;;8.30;99.90;;;;;;4904176;28;91476;-71
2023/11/10 00:50:07;;;;;;;8.23;1.92;;;8.30;99.90;;;;;;4889583;28;88120;-72
2023/11/10 00:52:33;;;;;;;8.05;1.13;;;8.30;99.90;;;;;;4895311;28;87782;-71
2023/11/10 00:55:01;;;;;;;4.85;1.00;;;8.40;99.90;;;;;;4887755;28;91516;-72
2023/11/10 00:57:29;;;;;;;7.07;1.70;;;8.40;99.90;;;;;;4893061;28;88543;-71
2023/11/10 00:59:55;;;;;;;2.50;0.85;;;8.40;99.90;;;;;;4892561;28;87960;-72
2023/11/10 01:02:38;;;;;;;5.47;1.42;;;8.40;99.90;;;;;;4889719;28;88079;-72
2023/11/10 01:05:04;;;;;;;6.30;1.60;;;8.40;99.90;;;;;;4891216;28;89844;-71
2023/11/10 01:07:33;;;;;;;8.00;1.25;;;8.40;99.90;;;;;;4903383;28;92819;-72
2023/11/10 01:09:58;;;;;;;4.97;1.05;;;8.40;99.90;;;;;;4891093;28;88085;-71
2023/11/10 01:12:24;;;;;;;6.28;1.77;;;8.40;99.90;;;;;;4887177;28;89945;-71
2023/11/10 01:14:57;;;;;;;6.97;1.10;;;8.50;99.90;;;;;;4889948;28;91210;-72
2023/11/10 01:17:22;;;;;;;9.60;1.38;;;8.50;99.90;;;;;;4884001;28;90439;-72
2023/11/10 01:19:48;;;;;;;8.60;1.27;;;8.50;99.90;;;;;;4888793;28;87988;-72
2023/11/10 01:22:14;;;;;;;12.93;1.48;;;8.50;99.90;;;;;;4890024;28;87955;-71
2023/11/10 01:24:39;;;;;;;6.32;1.15;;;8.50;99.90;;;;;;4888182;28;88520;-71
2023/11/10 01:27:05;;;;;;;6.00;1.50;;;8.50;99.90;;;;;;4890086;28;88291;-71
2023/11/10 01:29:31;;;;;;;8.00;1.98;;;8.50;99.90;;;;;;4883997;28;88526;-72
2023/11/10 01:31:56;;;;;;;3.40;1.10;;;8.50;99.90;;;;;;4884298;28;91071;-72
2023/11/10 01:34:22;;;;;;;4.25;1.20;;;8.50;99.90;;;;;;4891903;28;88547;-72
2023/11/10 01:36:47;;;;;;;11.82;2.00;;;8.50;99.90;;;;;;4893327;28;90951;-72
2023/11/10 01:39:13;;;;;;;8.70;0.93;;;8.50;99.90;;;;;;4886573;28;87666;-70
2023/11/10 01:41:39;;;;;;;6.38;1.35;;;8.50;99.90;;;;;;4888237;28;88218;-72
2023/11/10 01:44:05;;;;;;;5.22;0.90;;;8.50;99.90;;;;;;4888909;28;88140;-72
2023/11/10 01:46:33;;;;;;;3.83;1.08;;;8.60;99.90;;;;;;4893878;28;88972;-72
2023/11/10 01:48:59;;;;;;;6.13;1.25;;;8.50;99.90;;;;;;4887398;28;87907;-71
2023/11/10 01:51:29;;;;;;;7.30;1.00;;;8.60;99.90;;;;;;4890563;28;90409;-72
2023/11/10 01:53:55;;;;;;;5.68;0.82;;;8.60;99.90;;;;;;4888638;28;92263;-71
2023/11/10 01:56:23;;;;;;;3.95;1.05;;;8.60;99.90;;;;;;4886564;28;92991;-72
2023/11/10 01:58:52;;;;;;;5.95;1.00;;;8.60;99.90;;;;;;4888895;28;87617;-71
2023/11/10 02:01:18;;;;;;;5.53;0.93;;;8.60;99.90;;;;;;4892873;28;87718;-72
2023/11/10 02:03:46;;;;;;;5.97;1.00;;;8.60;99.90;;;;;;4888269;28;90825;-72
2023/11/10 02:06:12;;;;;;;5.90;1.30;;;8.60;99.90;;;;;;4889640;28;90303;-72
2023/11/10 02:08:37;;;;;;;6.65;0.73;;;8.60;99.90;;;;;;4887788;28;87825;-71
2023/11/10 02:11:03;;;;;;;4.68;0.93;;;8.50;99.90;;;;;;4889513;28;90528;-73
2023/11/10 02:13:29;;;;;;;3.88;0.90;;;8.50;99.90;;;;;;4888297;28;93375;-72
2023/11/10 02:15:54;;;;;;;5.00;0.98;;;8.50;99.90;;;;;;4882917;28;89025;-72
2023/11/10 02:18:20;;;;;;;4.97;1.00;;;8.50;99.90;;;;;;4889592;28;88643;-71
2023/11/10 02:20:46;;;;;;;7.25;1.30;;;8.50;99.90;;;;;;4884616;28;90896;-72
2023/11/10 02:23:12;;;;;;;5.15;0.70;;;8.50;99.90;;;;;;4883289;28;91968;-72
2023/11/10 02:25:38;;;;;;;7.70;0.88;;;8.50;99.90;;;;;;4887708;28;91526;-71
2023/11/10 02:28:05;;;;;;;4.72;1.00;;;8.50;99.90;;;;;;4888548;28;88241;-71
2023/11/10 02:30:30;;;;;;;3.35;1.08;;;8.50;99.90;;;;;;4888063;28;90318;-71
2023/11/10 02:32:56;;;;;;;3.65;0.80;;;8.40;99.90;;;;;;4886166;28;91489;-71
2023/11/10 02:35:22;;;;;;;5.60;0.95;;;8.40;99.90;;;;;;4891718;28;90985;-72
2023/11/10 02:37:47;;;;;;;8.00;1.00;;;8.40;99.90;;;;;;4886340;28;87707;-72
2023/11/10 02:40:13;;;;;;;5.85;1.50;;;8.40;99.90;;;;;;4895857;28;87867;-72
2023/11/10 02:42:39;;;;;;;4.10;1.00;;;8.40;99.90;;;;;;4891242;28;89529;-72
2023/11/10 02:45:05;;;;;;;3.75;0.85;;;8.40;99.90;;;;;;4889025;28;92402;-71
2023/11/10 02:47:31;;;;;;;5.85;1.13;;;8.40;99.90;;;;;;4889462;28;88508;-72
2023/11/10 02:49:57;;;;;;;7.78;1.00;;;8.40;99.90;;;;;;4891416;28;90725;-72
2023/11/10 02:52:23;;;;;;;6.15;1.00;;;8.30;99.90;;;;;;4887328;28;90517;-71
2023/11/10 02:54:48;;;;;;;9.50;1.38;;;8.40;99.90;;;;;;4893509;28;91200;-71
2023/11/10 02:57:14;;;;;;;6.88;1.25;;;8.30;99.90;;;;;;4893720;28;87768;-71
2023/11/10 02:59:40;;;;;;;5.63;1.10;;;8.40;99.90;;;;;;4889582;28;91168;-72
2023/11/10 03:02:05;;;;;;;7.38;1.13;;;8.30;99.90;;;;;;4895712;28;88509;-72
2023/11/10 03:04:31;;;;;;;5.43;1.55;;;8.30;99.90;;;;;;4888681;28;90223;-72
2023/11/10 03:06:57;;;;;;;6.65;1.02;;;8.30;99.90;;;;;;4889791;28;88876;-72
2023/11/10 03:09:23;;;;;;;6.15;0.88;;;8.30;99.90;;;;;;4892034;28;90926;-72
2023/11/10 03:11:49;;;;;;;7.55;1.13;;;8.20;99.90;;;;;;4888739;28;91616;-71
2023/11/10 03:14:39;;;;;;;4.13;0.70;;;8.20;99.90;;;;;;4889800;28;92108;-72
2023/11/10 03:17:08;;;;;;;6.07;1.00;;;8.20;99.90;;;;;;4893024;28;87910;-71
2023/11/10 03:19:36;;;;;;;2.65;0.60;;;8.20;99.90;;;;;;4890700;28;90328;-72
2023/11/10 03:22:02;;;;;;;3.75;1.00;;;8.20;99.90;;;;;;4892881;28;93024;-72
2023/11/10 03:24:28;;;;;;;6.35;1.02;;;8.20;99.90;;;;;;4887514;28;91505;-72
2023/11/10 03:26:54;;;;;;;7.15;0.82;;;8.10;99.90;;;;;;4890098;28;87906;-71
2023/11/10 03:29:19;;;;;;;3.05;0.63;;;8.10;99.90;;;;;;4891135;28;88265;-72
2023/11/10 03:31:45;;;;;;;2.67;0.70;;;8.10;99.90;;;;;;4889148;28;92741;-72
2023/11/10 03:34:11;;;;;;;1.63;0.57;;;8.10;99.90;;;;;;4891348;28;88752;-72
2023/11/10 03:36:36;;;;;;;8.15;1.95;;;8.20;99.90;;;;;;4885789;28;87937;-72
2023/11/10 03:39:03;;;;;;;4.72;0.88;;;8.10;99.90;;;;;;4893069;28;87546;-71
2023/11/10 03:41:30;;;;;;;5.38;0.85;;;8.20;99.90;;;;;;4890569;28;89649;-71
2023/11/10 03:43:58;;;;;;;4.57;1.08;;;8.10;99.90;;;;;;4891860;28;88292;-72
2023/11/10 03:46:24;;;;;;;5.03;0.70;;;8.20;99.90;;;;;;4887905;28;87982;-71
2023/11/10 03:48:50;;;;;;;5.55;1.00;;;8.10;99.90;;;;;;4894470;28;89601;-71
2023/11/10 03:51:16;;;;;;;8.30;0.90;;;8.10;99.90;;;;;;4891030;28;89327;-72
2023/11/10 03:53:42;;;;;;;7.00;1.23;;;8.10;99.90;;;;;;4906296;28;91537;-71
2023/11/10 03:56:08;;;;;;;4.03;0.75;;;8.10;99.90;;;;;;4892570;28;88758;-72
2023/11/10 03:58:35;;;;;;;5.45;1.13;;;8.10;99.90;;;;;;4890124;28;87815;-72
2023/11/10 04:01:01;;;;;;;5.20;1.08;;;8.10;99.90;;;;;;4888973;28;93085;-72
2023/11/10 04:03:26;;;;;;;4.53;1.15;;;8.10;99.90;;;;;;4886771;28;91236;-71
2023/11/10 04:06:12;;;;;;;7.32;1.05;;;8.10;99.90;;;;;;4890342;28;87635;-71
2023/11/10 04:08:38;;;;;;;5.00;1.20;;;8.10;99.90;;;;;;4893114;28;90226;-71
2023/11/10 04:11:03;;;;;;;6.55;0.88;;;8.10;99.90;;;;;;4890457;28;90407;-71
2023/11/10 04:13:29;;;;;;;4.18;0.57;;;8.10;99.90;;;;;;4889762;28;91303;-71
2023/11/10 04:15:56;;;;;;;6.30;0.90;;;8.10;99.90;;;;;;4884948;28;87782;-71
2023/11/10 04:18:26;;;;;;;6.97;1.25;;;8.00;99.90;;;;;;4890112;28;90464;-72
2023/11/10 04:20:55;;;;;;;5.93;1.25;;;8.00;99.90;;;;;;4890208;28;89797;-72
2023/11/10 04:23:20;;;;;;;6.85;1.15;;;8.00;99.90;;;;;;4893269;28;89803;-72
2023/11/10 04:25:47;;;;;;;4.10;1.13;;;8.00;99.90;;;;;;4883888;28;87833;-72
2023/11/10 04:28:14;;;;;;;6.60;1.55;;;8.00;99.90;;;;;;4890026;28;90791;-71
2023/11/10 04:30:39;;;;;;;4.63;0.73;;;7.90;99.90;;;;;;4887430;28;89342;-72
2023/11/10 04:33:07;;;;;;;4.47;0.60;;;7.90;99.90;;;;;;4889467;28;88013;-72
2023/11/10 04:35:33;;;;;;;6.97;0.65;;;7.90;99.90;;;;;;4887835;28;87865;-72
2023/11/10 04:38:00;;;;;;;6.45;1.05;;;7.90;99.90;;;;;;4887536;28;90339;-72
2023/11/10 04:40:27;;;;;;;4.30;0.63;;;7.90;99.90;;;;;;4889910;28;88546;-72
2023/11/10 04:42:55;;;;;;;5.35;0.98;;;7.90;99.90;;;;;;4892688;28;91900;-71
2023/11/10 04:45:22;;;;;;;4.47;0.65;;;8.00;99.90;;;;;;4905884;28;88452;-72
2023/11/10 04:48:04;;;;;;;2.65;0.68;;;8.00;99.90;;;;;;4888458;28;90064;-71
2023/11/10 04:50:30;;;;;;;8.38;1.20;;;8.00;99.90;;;;;;4890308;28;90547;-72
2023/11/10 04:52:56;;;;;;;7.93;1.35;;;8.00;99.90;;;;;;4891763;28;88482;-72
2023/11/10 04:55:40;;;;;;;6.90;0.82;;;7.90;99.90;;;;;;4889115;28;87922;-72
2023/11/10 04:58:06;;;;;;;;;;;7.90;99.90;;;;;;4887210;28;92050;-72
2023/11/10 05:00:33;;;;;;;2.58;0.60;;;7.80;99.90;;;;;;4892743;28;88604;-72
2023/11/10 05:03:02;;;;;;;3.75;0.70;;;7.80;99.90;;;;;;4886578;28;91806;-72
2023/11/10 05:05:27;;;;;;;5.22;0.65;;;7.80;99.90;;;;;;4892854;28;88119;-71
2023/11/10 05:07:53;;;;;;;4.00;0.90;;;7.70;99.90;;;;;;4890568;28;90382;-71
2023/11/10 05:10:19;;;;;;;6.38;1.13;;;7.70;99.90;;;;;;4886544;28;92492;-72
2023/11/10 05:12:45;;;;;;;5.70;1.00;;;7.70;99.90;;;;;;4884879;28;91101;-72
2023/11/10 05:15:12;;;;;;;3.95;1.48;;;7.60;99.90;;;;;;4891966;28;87742;-72
2023/11/10 05:17:55;;;;;;;2.83;0.52;;;7.60;99.90;;;;;;4889683;28;88553;-72
2023/11/10 05:20:22;;;;;;;3.83;0.70;;;7.50;99.90;;;;;;4886404;28;88308;-72
2023/11/10 05:22:48;;;;;;;5.00;0.70;;;7.50;99.90;;;;;;4891354;28;88366;-72
2023/11/10 05:25:13;;;;;;;4.63;0.88;;;7.50;99.90;;;;;;4888301;28;88017;-72
2023/11/10 05:27:59;;;;;;;5.13;0.65;;;7.40;99.90;;;;;;4886620;28;90545;-72
2023/11/10 05:30:25;;;;;;;5.60;0.88;;;7.40;99.90;;;;;;4887732;28;91343;-71
2023/11/10 05:32:51;;;;;;;7.03;0.90;;;7.40;99.90;;;;;;4888064;28;91217;-71
2023/11/10 05:35:16;;;;;;;3.83;0.75;;;7.30;99.90;;;;;;4887873;28;90440;-72
2023/11/10 05:37:42;;;;;;;4.50;0.68;;;7.30;99.90;;;;;;4886639;28;90471;-72
2023/11/10 05:40:11;;;;;;;3.13;0.90;;;7.30;99.90;;;;;;4892260;28;88302;-71
2023/11/10 05:42:37;;;;;;;6.95;1.02;;;7.20;99.90;;;;;;4888618;28;91763;-71
2023/11/10 05:45:12;;;;;;;5.20;0.98;;;7.20;99.90;;;;;;4887169;28;88084;-71
2023/11/10 05:47:37;;;;;;;2.97;1.00;;;7.20;99.90;;;;;;4891935;28;90750;-72
2023/11/10 05:50:04;;;;;;;3.08;1.00;;;7.20;99.90;;;;;;4892608;28;91750;-72
2023/11/10 05:52:31;;;;;;;5.35;1.10;;;7.20;99.90;;;;;;4908430;28;92950;-72
2023/11/10 05:54:58;;;;;;;3.92;1.15;;;7.10;99.90;;;;;;4892593;28;88160;-72
2023/11/10 05:57:24;;;;;;;4.55;0.82;;;7.10;99.90;;;;;;4887162;28;91300;-72
2023/11/10 05:59:50;;;;;;;8.43;1.70;;;7.20;99.90;;;;;;4884498;28;92904;-71
2023/11/10 06:02:17;;;;;;;11.13;1.27;;;7.20;99.90;;;;;;4886319;28;91345;-72
2023/11/10 06:04:44;;;;;;;4.78;1.02;;;7.20;99.90;;;;;;4887070;28;88079;-72
2023/11/10 06:07:11;;;;;;;4.55;1.00;;;7.20;99.90;;;;;;4887394;28;91155;-72
2023/11/10 06:09:39;;;;;;;4.82;1.02;;;7.20;99.90;;;;;;4885654;28;88259;-72
2023/11/10 06:12:07;;;;;;;7.53;1.38;;;7.20;99.90;;;;;;4886786;28;91056;-72
2023/11/10 06:14:33;;;;;;;8.85;1.10;;;7.20;99.90;;;;;;4885214;28;88191;-72
2023/11/10 06:16:59;;;;;;;5.40;1.40;;;7.20;99.90;;;;;;4888551;28;90971;-72
2023/11/10 06:19:24;;;;;;;9.63;1.20;;;7.20;99.90;;;;;;4887752;28;91705;-72
2023/11/10 06:21:50;;;;;;;12.40;1.98;;;7.20;99.90;;;;;;4885157;28;91377;-72
2023/11/10 06:24:19;;;;;;;6.45;1.15;;;7.20;99.90;;;;;;4888677;28;88954;-72
2023/11/10 06:26:45;;;;;;;7.45;1.35;;;7.20;99.90;;;;;;4881465;28;90672;-71
2023/11/10 06:29:18;;;;;;;9.60;1.15;;;7.20;99.90;;;;;;4886284;28;91993;-72
2023/11/10 06:31:48;;;;;;;6.55;1.38;;;7.20;99.90;;;;;;4886803;28;91999;-72
2023/11/10 06:34:14;;;;;;;9.48;1.35;;;7.20;99.90;;;;;;4887084;28;87763;-72
2023/11/10 06:36:39;;;;;;;9.57;1.20;;;7.20;99.90;;;;;;4891608;28;87939;-70
2023/11/10 06:39:15;;;;;;;7.15;1.15;;;7.10;99.90;;;;;;4889971;28;88292;-72
2023/11/10 06:41:40;;;;;;;6.65;1.50;;;7.20;99.90;;;;;;4887439;28;91340;-72
2023/11/10 06:44:08;;;;;;;10.60;1.88;;;7.10;99.90;;;;;;4884515;28;88133;-71
2023/11/10 06:46:33;;;;;;;7.72;1.35;;;7.10;99.90;;;;;;4884870;28;89972;-71
2023/11/10 06:48:59;;;;;;;9.52;0.82;;;7.20;99.90;;;;;;4886112;28;89710;-72
2023/11/10 06:51:24;;;;;;;9.23;1.30;;;7.20;99.90;;;;;;4889412;28;91757;-72
2023/11/10 06:53:50;;;;;;;6.80;0.93;;;7.20;99.90;;;;;;4887264;28;88472;-72
2023/11/10 06:56:17;;;;;;;8.95;0.93;;;7.20;99.90;;;;;;4885417;28;89107;-72
2023/11/10 06:58:42;;;;;;;7.57;1.20;;;7.30;99.90;;;;;;4888012;28;88189;-72
2023/11/10 07:01:09;;;;;;;9.80;1.42;;;7.30;99.90;;;;;;4889222;28;90576;-71
2023/11/10 07:03:35;;;;;;;8.68;2.20;;;7.30;99.90;;;;;;4883944;28;88291;-71
2023/11/10 07:06:04;;;;;;;6.35;1.25;;;7.30;99.90;;;;;;4882693;28;87834;-71
2023/11/10 07:08:30;;;;;;;13.05;1.30;;;7.30;99.90;;;;;;4888848;28;91562;-72
2023/11/10 07:11:00;;;;;;;9.60;1.13;;;7.30;99.90;;;;;;4872339;28;91805;-73
2023/11/10 07:13:26;;;;;;;8.10;1.52;;;7.30;99.90;;;;;;4885435;28;88518;-72
2023/11/10 07:16:12;;;;;;;8.65;1.10;;;7.30;99.90;;;;;;4882056;28;90518;-72
2023/11/10 07:18:45;;;;;;;8.20;1.55;;;7.30;99.90;;;;;;4884781;28;91346;-72
2023/11/10 07:21:13;;;;;;;10.25;1.83;;;7.40;99.90;;;;;;4892026;28;90318;-72
2023/11/10 07:23:41;;;;;;;5.80;1.23;;;7.40;99.90;;;;;;4891673;28;87517;-72
2023/11/10 07:26:07;;;;;;;13.57;1.48;;;7.40;99.90;;;;;;4889830;28;90298;-72
2023/11/10 07:28:35;;;;;;;11.93;1.10;;;7.50;99.90;;;;;;4882924;28;87697;-72
2023/11/10 07:31:21;;;;;;;6.18;0.90;;;7.50;99.90;;;;;;4887538;28;95921;-72
2023/11/10 07:33:47;;;;;;;6.22;0.82;;;7.60;99.90;;;;;;4893843;28;88035;-72
2023/11/10 07:36:14;;;;;;;11.68;1.15;;;7.60;99.90;;;;;;4890086;28;88180;-73
2023/11/10 07:38:39;;;;;;;8.57;1.23;;;7.60;99.90;;;;;;4893455;28;89257;-72
2023/11/10 07:41:05;;;;;;;14.10;1.45;;;7.70;99.90;;;;;;4894081;28;88961;-73
2023/11/10 07:43:31;;;;;;;7.82;1.50;;;7.80;99.90;;;;;;4889119;28;88311;-72
2023/11/10 07:45:58;;;;;;;13.90;3.50;;;7.80;99.90;;;;;;4886745;28;88055;-73
2023/11/10 07:48:26;;;;;;;9.88;1.13;;;7.90;99.90;;;;;;4891545;28;92428;-72
2023/11/10 07:50:51;;;;;;;7.70;0.90;;;8.00;99.90;;;;;;4892658;28;88457;-73
2023/11/10 07:53:37;;;;;;;19.55;2.20;;;8.00;99.90;;;;;;4890094;28;88506;-72
2023/11/10 07:56:04;;;;;;;6.60;1.42;;;8.10;99.90;;;;;;4887419;28;90540;-73
2023/11/10 07:58:30;;;;;;;12.23;1.63;;;8.10;99.90;;;;;;4879767;28;88249;-72
2023/11/10 08:00:56;;;;;;;14.23;2.03;;;8.10;99.90;;;;;;4879198;28;89029;-72
2023/11/10 08:03:25;;;;;;;10.50;1.60;;;8.20;99.90;;;;;;4889137;28;88943;-72
2023/11/10 08:05:53;;;;;;;9.07;1.17;;;8.20;99.90;;;;;;4890649;28;88492;-72
2023/11/10 08:08:19;;;;;;;8.38;1.00;;;8.20;99.90;;;;;;4898666;28;92055;-72
2023/11/10 08:10:45;;;;;;;6.75;1.40;;;8.30;99.90;;;;;;4881863;28;88803;-73
2023/11/10 08:13:11;;;;;;;6.43;1.23;;;8.30;99.90;;;;;;4877964;28;88192;-74
2023/11/10 08:15:37;;;;;;;12.48;1.55;;;8.30;99.90;;;;;;4881538;28;88605;-73
2023/11/10 08:18:02;;;;;;;11.02;1.17;;;8.30;99.90;;;;;;4876093;28;91198;-72
2023/11/10 08:20:34;;;;;;;5.88;1.50;;;8.40;99.90;;;;;;4884336;28;92015;-73
2023/11/10 08:23:03;;;;;;;14.40;1.55;;;8.40;99.90;;;;;;4880243;28;87927;-73
2023/11/10 08:25:29;;;;;;;5.22;1.23;;;8.40;99.90;;;;;;4882260;28;90071;-73
2023/11/10 08:27:55;;;;;;;17.33;1.65;;;8.40;99.90;;;;;;4883358;28;91443;-75
2023/11/10 08:30:22;;;;;;;17.23;1.45;;;8.40;99.90;;;;;;4881057;28;91400;-73
2023/11/10 08:32:48;;;;;;;14.73;1.98;;;8.50;99.90;;;;;;4880085;28;87809;-73
2023/11/10 08:35:15;;;;;;;7.40;1.13;;;8.50;99.90;;;;;;4882050;28;90339;-73
2023/11/10 08:37:47;;;;;;;7.57;1.88;;;8.50;99.90;;;;;;4880618;28;91955;-72
2023/11/10 08:40:13;;;;;;;10.05;1.20;;;8.60;99.90;;;;;;4885528;28;88416;-72
2023/11/10 08:42:41;;;;;;;7.20;0.98;;;8.60;99.90;;;;;;4883957;28;87941;-73
2023/11/10 08:45:07;;;;;;;13.73;1.50;;;8.60;99.90;;;;;;4875601;28;87641;-72
2023/11/10 08:47:33;;;;;;;8.98;1.10;;;8.60;99.90;;;;;;4877283;28;91900;-72
2023/11/10 08:49:59;;;;;;;10.07;1.52;;;8.60;99.90;;;;;;4880661;28;87870;-73
2023/11/10 08:52:25;;;;;;;7.68;1.20;;;8.60;99.90;;;;;;4887254;28;88607;-72
2023/11/10 08:54:53;;;;;;;8.75;1.20;;;8.60;99.90;;;;;;4881714;28;87702;-72
2023/11/10 08:57:18;;;;;;;22.48;2.35;;;8.60;99.90;;;;;;4883187;28;92266;-73
2023/11/10 08:59:44;;;;;;;11.48;1.35;;;8.60;99.90;;;;;;4888976;28;90851;-72
2023/11/10 09:02:10;;;;;;;11.10;1.40;;;8.60;99.90;;;;;;4892252;28;87702;-73
2023/11/10 09:04:35;;;;;;;13.38;1.85;;;8.60;99.90;;;;;;4885570;28;88294;-73
2023/11/10 09:07:01;;;;;;;11.25;1.95;;;8.60;99.90;;;;;;4893551;28;88047;-73
2023/11/10 09:09:29;;;;;;;13.90;1.50;;;8.60;99.90;;;;;;4880555;28;91628;-73
2023/11/10 09:11:55;;;;;;;11.40;2.05;;;8.60;99.90;;;;;;4884311;28;87869;-73
2023/11/10 09:14:20;;;;;;;14.25;1.77;;;8.60;99.90;;;;;;4882677;28;90668;-73
2023/11/10 09:16:46;;;;;;;10.40;1.17;;;8.50;99.90;;;;;;4885938;28;90166;-73
2023/11/10 09:19:29;;;;;;;7.60;1.20;;;8.50;99.90;;;;;;4892009;28;92116;-73
2023/11/10 09:21:58;;;;;;;15.63;1.65;;;8.50;99.90;;;;;;4880465;28;87912;-73
2023/11/10 09:24:24;;;;;;;6.63;1.85;;;8.50;99.90;;;;;;4882766;28;88306;-73
2023/11/10 09:26:49;;;;;;;10.13;1.45;;;8.40;99.90;;;;;;4878630;28;91810;-73
2023/11/10 09:29:16;;;;;;;8.40;1.02;;;8.40;99.90;;;;;;4884963;28;92099;-72
2023/11/10 09:31:41;;;;;;;9.73;1.30;;;8.40;99.90;;;;;;4890142;28;88424;-72
2023/11/10 09:34:07;;;;;;;11.20;1.58;;;8.40;99.90;;;;;;4888607;28;89824;-73
2023/11/10 09:36:33;;;;;;;8.50;1.77;;;8.40;99.90;;;;;;4883608;28;89601;-72
2023/11/10 09:38:59;;;;;;;4.60;0.95;;;8.30;99.90;;;;;;4901942;28;91354;-73
2023/11/10 09:41:33;;;;;;;9.18;1.08;;;8.30;99.90;;;;;;4888997;28;88452;-75
2023/11/10 09:43:59;;;;;;;8.65;1.25;;;8.30;99.90;;;;;;4883258;28;89808;-73
2023/11/10 09:46:25;;;;;;;12.70;1.90;;;8.30;99.90;;;;;;4888166;28;92213;-72
2023/11/10 09:48:54;;;;;;;7.20;1.15;;;8.20;99.90;;;;;;4885053;28;90080;-73
2023/11/10 09:51:25;;;;;;;8.30;1.70;;;8.20;99.90;;;;;;4891165;28;87389;-73
2023/11/10 09:53:53;;;;;;;7.65;1.27;;;8.20;99.90;;;;;;4886512;28;90832;-72
2023/11/10 09:56:20;;;;;;;6.53;1.00;;;8.20;99.90;;;;;;4883400;28;88091;-73
2023/11/10 09:58:47;;;;;;;7.63;1.13;;;8.20;99.90;;;;;;4881990;28;88086;-73
2023/11/10 10:01:12;;;;;;;8.00;1.58;;;8.20;99.90;;;;;;4878960;28;87954;-73
2023/11/10 10:03:38;;;;;;;8.93;1.20;;;8.20;99.90;;;;;;4877581;28;90832;-73
2023/11/10 10:06:06;;;;;;;6.53;0.93;;;8.20;99.90;;;;;;4874439;28;89946;-73
2023/11/10 10:08:32;;;;;;;9.95;2.15;;;8.20;99.90;;;;;;4877537;28;89437;-73
2023/11/10 10:10:58;;;;;;;6.03;0.90;;;8.20;99.90;;;;;;4874468;28;88149;-73
2023/11/10 10:13:27;;;;;;;7.20;1.23;;;8.20;99.90;;;;;;4879925;28;88504;-73
2023/11/10 10:15:54;;;;;;;4.78;0.80;;;8.20;99.90;;;;;;4885485;28;89861;-73
2023/11/10 10:18:23;;;;;;;13.90;1.33;;;8.20;99.90;;;;;;4885752;28;89020;-73
2023/11/10 10:20:58;;;;;;;12.07;1.13;;;8.20;99.90;;;;;;4893936;28;88147;-73
2023/11/10 10:23:24;;;;;;;3.83;0.90;;;8.20;99.90;;;;;;4877929;28;88694;-73
2023/11/10 10:25:50;;;;;;;7.03;1.10;;;8.20;99.90;;;;;;4876298;28;89174;-74
2023/11/10 10:28:17;;;;;;;7.90;1.08;;;8.30;99.90;;;;;;4879026;28;91521;-73
2023/11/10 10:30:44;;;;;;;4.95;0.90;;;8.30;99.90;;;;;;4878649;28;88862;-73
2023/11/10 10:33:10;;;;;;;12.38;1.17;;;8.30;99.90;;;;;;4878639;28;91513;-72
2023/11/10 10:35:36;;;;;;;13.07;0.90;;;8.30;99.90;;;;;;4880039;28;88199;-72
2023/11/10 10:38:04;;;;;;;6.20;0.85;;;8.30;99.90;;;;;;4873800;28;88068;-72
2023/11/10 10:40:32;;;;;;;4.70;0.60;;;8.30;99.90;;;;;;4876474;28;88022;-72
2023/11/10 10:42:58;;;;;;;7.50;0.60;;;8.30;99.90;;;;;;4877397;28;88297;-73
2023/11/10 10:45:26;;;;;;;3.50;0.70;;;8.40;99.90;;;;;;4877546;28;91908;-74
2023/11/10 10:48:03;;;;;;;3.63;0.75;;;8.40;99.90;;;;;;4883578;28;91722;-73
2023/11/10 10:50:41;;;;;;;2.72;0.70;;;8.40;99.90;;;;;;4895098;28;88495;-72
2023/11/10 10:53:09;;;;;;;6.50;0.93;;;8.40;99.90;;;;;;4888447;28;88407;-73
2023/11/10 10:55:37;;;;;;;5.28;0.52;;;8.50;99.90;;;;;;4889783;28;92845;-74
2023/11/10 10:58:03;;;;;;;2.10;0.60;;;8.50;99.90;;;;;;4905657;28;91980;-72
2023/11/10 11:00:31;;;;;;;1.85;0.60;;;8.50;99.90;;;;;;4896312;28;87650;-73
2023/11/10 11:03:06;;;;;;;4.07;0.70;;;8.50;99.90;;;;;;4892794;28;87977;-73
2023/11/10 11:05:52;;;;;;;3.67;0.60;;;8.50;99.90;;;;;;4890495;28;89187;-73
2023/11/10 11:08:39;;;;;;;8.57;0.73;;;8.50;99.90;;;;;;4886469;28;91403;-73
2023/11/10 11:11:12;;;;;;;3.75;0.70;;;8.50;99.90;;;;;;4888144;28;87821;-73
2023/11/10 11:13:44;;;;;;;3.45;0.50;;;8.50;99.90;;;;;;4893185;28;90155;-73
2023/11/10 11:16:39;;;;;;;3.83;0.63;;;8.50;99.90;;;;;;4891544;28;89791;-72
2023/11/10 11:19:27;;;;;;;4.10;0.60;;;8.50;99.90;;;;;;4889474;28;92345;-73
2023/11/10 11:21:53;;;;;;;15.55;0.98;;;8.50;99.90;;;;;;4886937;28;88710;-72
2023/11/10 11:24:21;;;;;;;3.17;0.70;;;8.50;99.90;;;;;;4887617;28;88344;-72
2023/11/10 11:27:07;;;;;;;6.53;0.68;;;8.50;99.90;;;;;;4884617;28;92209;-73
2023/11/10 11:29:37;;;;;;;3.08;0.60;;;8.50;99.90;;;;;;4878562;28;91130;-73
2023/11/10 11:32:25;;;;;;;3.80;0.60;;;8.40;99.90;;;;;;4882866;28;89200;-73
2023/11/10 11:35:04;;;;;;;3.83;0.90;;;8.40;99.90;;;;;;4888289;28;89705;-73
2023/11/10 11:37:34;;;;;;;4.78;0.70;;;8.40;99.90;;;;;;4899313;28;88707;-74
2023/11/10 11:40:04;;;;;;;4.13;0.88;;;8.40;99.90;;;;;;4889098;28;89857;-73
2023/11/10 11:42:45;;;;;;;6.45;0.88;;;8.40;99.90;;;;;;4891798;28;94034;-73
2023/11/10 11:45:13;;;;;;;8.30;0.90;;;8.50;99.90;;;;;;4885252;28;89520;-72
2023/11/10 11:47:39;;;;;;;2.25;0.63;;;8.50;99.90;;;;;;4883251;28;91623;-73
2023/11/10 11:50:09;;;;;;;6.93;0.90;;;8.50;99.90;;;;;;4885891;28;92384;-73
2023/11/10 11:52:35;;;;;;;4.97;1.00;;;8.60;99.90;;;;;;4890776;28;88934;-73
2023/11/10 11:55:02;;;;;;;6.28;0.80;;;8.60;99.90;;;;;;4886149;28;90830;-73
2023/11/10 11:57:32;;;;;;;9.40;1.38;;;8.70;99.90;;;;;;4898438;28;91820;-72
2023/11/10 11:59:58;;;;;;;8.20;2.33;;;8.70;99.90;;;;;;4886158;28;91379;-73
2023/11/10 12:02:23;;;;;;;4.75;1.02;;;8.80;99.90;;;;;;4889764;28;88533;-72
2023/11/10 12:04:49;;;;;;;5.53;0.93;;;8.80;99.90;;;;;;4885082;28;88046;-72
2023/11/10 12:07:22;;;;;;;7.43;0.82;;;8.90;99.90;;;;;;4886472;28;91923;-72
2023/11/10 12:09:50;;;;;;;7.22;0.98;;;8.90;99.90;;;;;;4883649;28;88319;-73
2023/11/10 12:12:16;;;;;;;4.28;0.98;;;8.90;99.90;;;;;;4888945;28;88736;-72
2023/11/10 12:14:42;;;;;;;5.82;1.20;;;8.90;99.90;;;;;;4882747;28;90839;-71
2023/11/10 12:17:08;;;;;;;6.82;0.90;;;8.90;99.90;;;;;;4888506;28;89436;-72
2023/11/10 12:19:34;;;;;;;9.30;1.15;;;8.90;99.90;;;;;;4891708;28;88905;-73
2023/11/10 12:22:00;;;;;;;4.40;0.82;;;8.90;99.90;;;;;;4884108;28;88023;-72
2023/11/10 12:24:26;;;;;;;5.35;1.15;;;8.90;99.90;;;;;;4881708;28;90674;-72
2023/11/10 12:26:52;;;;;;;5.20;0.88;;;8.90;99.90;;;;;;4885361;28;88725;-72
2023/11/10 12:29:26;;;;;;;4.78;0.90;;;8.90;99.90;;;;;;4885572;28;89042;-72
2023/11/10 12:31:52;;;;;;;10.55;1.60;;;8.90;99.90;;;;;;4883127;28;87924;-73
2023/11/10 12:34:20;;;;;;;8.32;1.75;;;8.90;99.90;;;;;;4888280;28;91315;-72
2023/11/10 12:36:49;;;;;;;7.65;1.02;;;8.90;99.90;;;;;;4898301;28;93658;-73
2023/11/10 12:39:22;;;;;;;8.13;1.73;;;8.90;99.90;;;;;;4887496;28;88808;-73
2023/11/10 12:41:50;;;;;;;10.73;2.30;;;8.90;99.90;;;;;;4883465;28;87998;-72
2023/11/10 12:44:19;;;;;;;9.85;1.88;;;8.90;99.90;;;;;;4887506;28;87916;-72
2023/11/10 12:46:57;;;;;;;7.38;1.10;;;8.90;99.90;;;;;;4886808;28;89202;-72
2023/11/10 12:49:29;;;;;;;11.60;1.33;;;8.90;99.90;;;;;;4888306;28;90861;-73
2023/11/10 12:52:09;;;;;;;14.00;2.00;;;8.90;99.90;;;;;;4887151;28;88361;-72
2023/11/10 12:54:41;;;;;;;17.35;1.95;;;8.80;99.90;;;;;;4900519;28;88771;-72
2023/11/10 12:57:07;;;;;;;14.27;1.60;;;8.80;99.90;;;;;;4890245;28;92060;-72
2023/11/10 12:59:33;;;;;;;12.15;2.35;;;8.80;99.90;;;;;;4890460;28;87544;-72